Time;durP1;ratioP1;P1;durP2;ratioP2;P2;SDS_P1;SDS_P2;PMS_P1;PMS_P2;Temp;Humidity;BMP_temperature;BMP_pressure;BME280_temperature;BME280_humidity;BME280_pressure;Samples;Min_cycle;Max_cycle;Signal;HPM_P1;HPM_P2
2022/02/04 00:06:54;;;;;;;60.20;32.73;;;7.20;74.10;;;;;;5016525;28;20508;-69
2022/02/04 00:28:14;;;;;;;47.70;27.50;;;7.00;75.20;;;;;;5015849;28;20041;-69
2022/02/04 00:30:45;;;;;;;49.50;27.00;;;6.90;75.30;;;;;;5015781;28;20053;-70
2022/02/04 00:33:13;;;;;;;49.80;27.73;;;6.80;75.70;;;;;;5015649;28;20100;-70
2022/02/04 00:38:30;;;;;;;64.63;27.20;;;6.90;75.90;;;;;;5015567;28;20030;-70
2022/02/04 00:41:03;;;;;;;45.13;25.17;;;6.90;76.10;;;;;;5015680;28;20053;-69
2022/02/04 00:43:30;;;;;;;41.17;22.10;;;6.90;76.10;;;;;;5015524;28;20582;-69
2022/02/04 01:26:16;;;;;;;35.20;21.00;;;6.70;76.30;;;;;;5015225;28;20041;-68
2022/02/04 01:28:44;;;;;;;38.90;21.27;;;6.70;76.30;;;;;;5014815;28;20029;-69
2022/02/04 01:31:16;;;;;;;40.73;21.47;;;6.70;76.20;;;;;;5014626;28;20058;-69
2022/02/04 01:33:43;;;;;;;35.57;20.07;;;6.70;76.60;;;;;;5014769;28;20033;-69
2022/02/04 01:36:09;;;;;;;32.70;17.60;;;6.60;76.40;;;;;;5014360;28;20046;-70
2022/02/04 01:38:35;;;;;;;23.13;13.97;;;6.60;76.70;;;;;;5014179;28;20076;-69
2022/02/04 01:41:00;;;;;;;20.90;11.83;;;6.60;77.00;;;;;;5014503;28;20032;-69
2022/02/04 01:43:27;;;;;;;22.50;12.93;;;6.70;77.20;;;;;;5014429;28;20101;-69
2022/02/04 01:45:55;;;;;;;21.13;11.40;;;6.60;77.40;;;;;;5014218;28;20033;-69
2022/02/04 01:48:21;;;;;;;25.27;12.00;;;6.60;77.70;;;;;;5014498;28;20029;-68
2022/02/04 01:50:48;;;;;;;20.43;11.10;;;6.50;78.00;;;;;;5014367;28;20030;-68
2022/02/04 01:53:17;;;;;;;20.73;10.40;;;6.40;78.20;;;;;;5014355;28;20018;-68
2022/02/04 01:55:44;;;;;;;19.07;10.27;;;6.40;78.70;;;;;;5014277;28;20045;-68
2022/02/04 01:58:11;;;;;;;21.03;10.80;;;6.40;78.80;;;;;;5013108;28;20057;-68
2022/02/04 02:00:38;;;;;;;23.40;11.23;;;6.40;79.00;;;;;;5011352;28;20390;-69
2022/02/04 02:03:05;;;;;;;19.33;12.10;;;6.40;78.90;;;;;;5011367;28;20806;-69
2022/02/04 02:05:32;;;;;;;19.90;10.97;;;6.40;78.90;;;;;;5013248;28;20026;-69
2022/02/04 02:08:09;;;;;;;18.70;10.53;;;6.40;78.60;;;;;;5013881;28;20026;-69
2022/02/04 02:10:35;;;;;;;18.60;10.67;;;6.40;78.40;;;;;;5013314;28;20133;-68
2022/02/04 02:13:21;;;;;;;18.33;9.73;;;6.40;78.70;;;;;;5013786;28;20083;-69
2022/02/04 02:46:07;;;;;;;16.40;10.63;;;6.30;81.20;;;;;;5013580;28;20030;-70
2022/02/04 02:51:44;;;;;;;18.53;10.60;;;6.40;81.40;;;;;;4990604;28;20030;-70
2022/02/04 02:59:30;;;;;;;19.77;10.50;;;6.60;80.60;;;;;;5013245;28;20478;-69
2022/02/04 03:01:55;;;;;;;20.10;10.87;;;6.60;80.20;;;;;;5013475;28;20034;-69
2022/02/04 03:04:21;;;;;;;18.53;10.07;;;6.60;79.90;;;;;;5013438;28;20036;-69
2022/02/04 03:06:48;;;;;;;22.30;10.33;;;6.60;79.90;;;;;;5013277;28;20026;-70
2022/02/04 03:09:15;;;;;;;19.10;10.87;;;6.60;80.20;;;;;;5013160;28;20049;-70
2022/02/04 03:11:41;;;;;;;21.17;11.77;;;6.60;79.90;;;;;;5013271;28;20064;-69
2022/02/04 03:14:07;;;;;;;19.23;10.83;;;6.60;79.80;;;;;;5013095;28;20062;-69
2022/02/04 03:16:33;;;;;;;26.83;13.63;;;6.60;79.70;;;;;;5013587;28;20042;-69
2022/02/04 03:19:01;;;;;;;27.23;13.87;;;6.60;79.20;;;;;;5013293;28;20378;-69
2022/02/04 03:21:33;;;;;;;21.43;13.77;;;6.60;78.70;;;;;;5012881;28;20037;-69
2022/02/04 03:24:07;;;;;;;20.45;12.82;;;6.50;78.40;;;;;;5016287;28;20054;-70
2022/02/04 03:26:52;;;;;;;21.03;13.07;;;6.50;78.20;;;;;;5017252;28;20022;-69
2022/02/04 03:29:32;;;;;;;24.07;13.20;;;6.40;78.70;;;;;;5016753;28;20033;-69
2022/02/04 03:32:05;;;;;;;27.37;13.27;;;6.40;78.90;;;;;;5016928;28;20022;-69
2022/02/04 03:34:31;;;;;;;20.98;11.45;;;6.40;79.20;;;;;;5016667;28;20026;-71
2022/02/04 03:36:56;;;;;;;23.97;12.30;;;6.40;79.60;;;;;;5016843;28;20042;-69
2022/02/04 03:39:22;;;;;;;19.83;11.77;;;6.40;79.70;;;;;;5016703;28;20022;-70
2022/02/04 03:41:48;;;;;;;22.23;12.20;;;6.40;79.70;;;;;;5016936;28;20037;-69
2022/02/04 03:44:13;;;;;;;19.63;11.40;;;6.40;79.80;;;;;;5016850;28;20022;-69
2022/02/04 03:46:39;;;;;;;21.70;12.17;;;6.40;79.80;;;;;;5016806;28;20033;-70
2022/02/04 03:49:05;;;;;;;21.87;12.13;;;6.40;80.00;;;;;;5016572;28;20034;-70
2022/02/04 03:51:30;;;;;;;22.77;10.53;;;6.40;80.30;;;;;;5016872;28;20100;-69
2022/02/04 03:53:56;;;;;;;20.27;11.13;;;6.40;80.40;;;;;;5016408;28;20487;-69
2022/02/04 03:56:22;;;;;;;19.57;10.27;;;6.40;80.70;;;;;;5016875;28;20445;-69
2022/02/04 03:58:48;;;;;;;17.27;9.90;;;6.40;81.10;;;;;;5016821;28;20108;-70
2022/02/04 04:01:13;;;;;;;16.93;9.80;;;6.40;81.40;;;;;;5016736;28;20026;-69
2022/02/04 04:03:40;;;;;;;15.87;9.17;;;6.40;81.60;;;;;;5016239;28;20077;-69
2022/02/04 04:06:06;;;;;;;20.03;9.80;;;6.40;81.80;;;;;;5016731;28;20030;-69
2022/02/04 04:08:32;;;;;;;14.83;8.87;;;6.40;81.90;;;;;;5016005;28;20125;-69
2022/02/04 04:10:58;;;;;;;20.13;9.27;;;6.40;81.90;;;;;;5015463;28;20057;-69
2022/02/04 04:13:23;;;;;;;17.00;10.20;;;6.50;81.70;;;;;;5015028;28;20018;-69
2022/02/04 04:15:49;;;;;;;18.47;9.33;;;6.50;81.50;;;;;;5014930;28;20041;-69
2022/02/04 04:18:15;;;;;;;29.97;9.57;;;6.50;81.40;;;;;;5014997;28;20022;-70
2022/02/04 04:20:43;;;;;;;20.00;9.13;;;6.50;81.20;;;;;;5015055;28;20030;-69
2022/02/04 04:23:09;;;;;;;21.80;10.53;;;6.50;81.10;;;;;;5015129;28;20068;-70
2022/02/04 04:25:35;;;;;;;23.40;10.67;;;6.50;80.90;;;;;;5015074;28;20032;-70
2022/02/04 04:28:01;;;;;;;24.23;11.27;;;6.50;81.00;;;;;;5014845;28;20022;-69
2022/02/04 04:30:26;;;;;;;19.77;10.80;;;6.50;80.90;;;;;;5014893;28;20022;-70
2022/02/04 04:32:55;;;;;;;22.30;10.93;;;6.50;80.70;;;;;;5014760;28;20025;-71
2022/02/04 04:35:24;;;;;;;20.67;11.27;;;6.50;80.60;;;;;;5014400;28;20026;-70
2022/02/04 04:37:58;;;;;;;28.10;10.60;;;6.50;81.30;;;;;;5014742;28;20081;-69
2022/02/04 05:29:50;;;;;;;15.73;9.10;;;6.60;82.20;;;;;;5070015;28;20040;-70
2022/02/04 05:32:17;;;;;;;19.57;9.00;;;6.60;82.50;;;;;;5069733;28;20499;-69
2022/02/04 05:34:45;;;;;;;14.73;8.87;;;6.60;82.50;;;;;;5069843;28;20017;-69
2022/02/04 05:37:13;;;;;;;17.57;8.97;;;6.70;82.40;;;;;;5069935;28;20103;-69
2022/02/04 05:39:50;;;;;;;21.43;8.70;;;6.70;82.50;;;;;;5069877;28;20486;-69
2022/02/04 05:42:20;;;;;;;22.80;9.57;;;6.70;82.20;;;;;;5069469;28;20047;-70
2022/02/04 05:44:54;;;;;;;19.47;8.47;;;6.70;82.20;;;;;;5069506;28;20465;-70
2022/02/04 05:47:20;;;;;;;13.90;8.10;;;6.80;82.60;;;;;;5069954;28;20029;-69
2022/02/04 05:50:15;;;;;;;14.63;7.63;;;6.80;82.40;;;;;;5069514;28;20048;-69
2022/02/04 05:52:47;;;;;;;15.73;8.77;;;6.80;82.20;;;;;;5069073;28;20037;-69
2022/02/04 05:55:46;;;;;;;15.70;8.10;;;6.80;82.20;;;;;;5069762;28;20052;-69
2022/02/04 05:58:14;;;;;;;14.03;8.00;;;6.80;82.00;;;;;;5069473;28;20064;-69
2022/02/04 06:00:51;;;;;;;16.97;7.57;;;6.80;82.30;;;;;;5069532;28;20032;-70
2022/02/04 06:08:37;;;;;;;16.70;7.53;;;6.80;82.90;;;;;;5069572;28;20033;-70
2022/02/04 06:24:06;;;;;;;17.27;9.10;;;6.80;83.20;;;;;;5055813;28;20039;-70
2022/02/04 06:26:32;;;;;;;19.17;9.50;;;6.80;83.10;;;;;;5055737;28;20465;-69
2022/02/04 06:28:58;;;;;;;15.67;8.57;;;6.80;83.00;;;;;;5055508;28;20139;-70
2022/02/04 06:31:24;;;;;;;13.60;8.83;;;6.80;82.90;;;;;;5055651;28;20057;-70
2022/02/04 06:33:50;;;;;;;18.33;9.20;;;6.90;82.70;;;;;;5055396;28;20063;-70
2022/02/04 06:36:16;;;;;;;15.90;8.50;;;6.90;82.70;;;;;;5055564;28;20053;-69
2022/02/04 06:38:42;;;;;;;14.93;8.97;;;6.90;82.80;;;;;;5055419;28;20098;-69
2022/02/04 06:41:08;;;;;;;19.83;9.33;;;6.90;82.70;;;;;;5055745;28;20489;-69
2022/02/04 06:43:35;;;;;;;15.47;9.10;;;6.90;82.60;;;;;;5055702;28;20043;-71
2022/02/04 06:46:01;;;;;;;20.90;8.90;;;6.90;82.70;;;;;;5055350;28;20075;-70
2022/02/04 06:48:27;;;;;;;19.97;8.90;;;6.90;83.00;;;;;;5055064;28;20112;-70
2022/02/04 06:50:53;;;;;;;16.37;8.43;;;6.80;83.20;;;;;;5055114;28;20127;-69
2022/02/04 06:53:19;;;;;;;13.03;7.67;;;6.80;83.30;;;;;;5055353;28;20032;-69
2022/02/04 06:55:45;;;;;;;17.10;8.17;;;6.80;83.30;;;;;;5055032;28;20063;-69
2022/02/04 06:58:12;;;;;;;18.10;8.00;;;6.80;83.40;;;;;;5055341;28;20056;-70
2022/02/04 07:00:39;;;;;;;22.17;8.90;;;6.80;83.50;;;;;;5055020;28;20079;-71
2022/02/04 07:03:05;;;;;;;24.30;14.60;;;6.90;83.50;;;;;;5055139;28;20028;-70
2022/02/04 07:05:38;;;;;;;64.03;41.90;;;6.90;83.60;;;;;;5055021;28;20508;-69
2022/02/04 07:08:21;;;;;;;54.10;31.23;;;6.90;83.60;;;;;;5054974;28;20128;-70
2022/02/04 07:21:50;;;;;;;21.53;9.93;;;7.10;83.20;;;;;;5052744;28;20036;-70
2022/02/04 07:24:16;;;;;;;19.53;10.77;;;7.10;83.00;;;;;;5053568;28;20037;-69
2022/02/04 07:26:41;;;;;;;19.50;10.23;;;7.10;83.20;;;;;;5052708;28;20021;-69
2022/02/04 07:29:07;;;;;;;20.77;11.33;;;7.10;83.30;;;;;;5053531;28;20028;-70
2022/02/04 07:31:37;;;;;;;27.30;11.43;;;7.10;83.10;;;;;;5054002;28;20389;-70
2022/02/04 07:34:39;;;;;;;22.53;11.50;;;7.10;83.00;;;;;;5052132;28;20390;-70
2022/02/04 07:42:16;;;;;;;18.60;9.90;;;7.20;83.40;;;;;;5053959;28;20040;-70
2022/02/04 07:44:42;;;;;;;24.43;10.43;;;7.30;83.50;;;;;;5051537;28;20033;-71
2022/02/04 07:47:11;;;;;;;20.70;9.93;;;7.30;83.40;;;;;;5051579;28;20124;-70
2022/02/04 07:49:37;;;;;;;25.13;9.20;;;7.30;83.50;;;;;;5051868;28;20037;-71
2022/02/04 07:52:03;;;;;;;18.17;9.63;;;7.40;83.50;;;;;;5053440;28;20413;-71
2022/02/04 07:54:28;;;;;;;20.10;8.77;;;7.50;83.50;;;;;;5052512;28;20048;-70
2022/02/04 07:56:54;;;;;;;21.27;8.90;;;7.50;83.30;;;;;;5053492;28;20389;-69
2022/02/04 07:59:20;;;;;;;25.27;9.03;;;7.60;83.00;;;;;;5053674;28;20029;-68
2022/02/04 08:01:47;;;;;;;23.23;8.27;;;7.70;82.30;;;;;;5053962;28;20032;-68
2022/02/04 08:04:20;;;;;;;16.57;7.60;;;7.80;82.10;;;;;;5053833;28;20032;-70
2022/02/04 08:06:52;;;;;;;16.73;7.07;;;7.80;81.80;;;;;;5053601;28;20025;-71
2022/02/04 08:17:15;;;;;;;11.73;6.33;;;8.10;81.00;;;;;;5053503;28;20058;-69
2022/02/04 08:36:55;;;;;;;13.27;5.53;;;8.60;78.00;;;;;;5071231;28;20370;-66
2022/02/04 08:55:55;;;;;;;16.63;6.97;;;8.70;77.20;;;;;;5052639;28;20116;-69
2022/02/04 09:01:07;;;;;;;29.50;7.40;;;8.70;77.20;;;;;;5052945;28;20063;-67
2022/02/04 09:06:16;;;;;;;18.37;6.83;;;8.70;76.90;;;;;;5052526;28;20033;-67
2022/02/04 09:08:45;;;;;;;23.53;7.80;;;8.80;76.90;;;;;;5051883;28;20032;-66
2022/02/04 09:11:16;;;;;;;18.17;8.20;;;8.80;76.80;;;;;;5052590;28;20037;-66
2022/02/04 09:19:15;;;;;;;14.40;8.30;;;8.80;76.90;;;;;;5052194;28;20032;-68
2022/02/04 09:24:22;;;;;;;14.90;7.50;;;8.90;76.80;;;;;;5052627;28;20090;-67
2022/02/04 09:26:48;;;;;;;21.77;8.20;;;8.90;76.90;;;;;;5051922;28;20095;-67
2022/02/04 09:29:14;;;;;;;21.23;8.90;;;8.90;77.10;;;;;;5052224;28;20063;-68
2022/02/04 09:31:40;;;;;;;21.63;9.00;;;9.00;77.20;;;;;;5049858;28;20021;-68
2022/02/04 09:34:07;;;;;;;21.90;9.13;;;9.00;77.50;;;;;;5052295;28;20025;-68
2022/02/04 09:36:33;;;;;;;16.00;8.10;;;9.00;77.40;;;;;;5051931;28;20048;-69
2022/02/04 09:38:59;;;;;;;18.23;8.00;;;9.00;77.70;;;;;;5052045;28;20075;-68
2022/02/04 09:41:25;;;;;;;20.00;8.00;;;9.00;78.20;;;;;;5051940;28;20025;-68
2022/02/04 09:43:51;;;;;;;21.13;7.77;;;9.00;77.60;;;;;;5052040;28;20485;-68
2022/02/04 09:46:18;;;;;;;23.33;7.73;;;9.10;77.70;;;;;;5052188;28;20033;-68
2022/02/04 09:48:48;;;;;;;13.33;7.27;;;9.10;77.40;;;;;;5051696;28;20025;-67
2022/02/04 09:51:18;;;;;;;12.90;7.10;;;9.10;77.50;;;;;;5051220;28;20033;-70
2022/02/04 10:07:57;;;;;;;21.07;9.23;;;9.20;77.70;;;;;;5054731;28;20028;-69
2022/02/04 10:13:19;;;;;;;24.73;10.50;;;9.20;77.60;;;;;;5052382;28;20112;-67
2022/02/04 10:18:47;;;;;;;21.13;10.07;;;9.20;77.30;;;;;;5055308;28;20025;-67
2022/02/04 10:21:10;;;;;;;20.63;10.67;;;9.20;77.40;;;;;;5055139;28;20036;-70
2022/02/04 10:23:59;;;;;;;22.47;10.80;;;9.20;77.70;;;;;;5054739;28;20547;-67
2022/02/04 10:26:26;;;;;;;25.50;11.30;;;9.20;77.50;;;;;;5055178;28;20025;-68
2022/02/04 10:28:53;;;;;;;19.20;10.83;;;9.20;77.30;;;;;;5055496;28;20028;-69
2022/02/04 10:31:23;;;;;;;20.17;10.43;;;9.20;77.20;;;;;;5055463;28;20024;-67
2022/02/04 10:33:58;;;;;;;19.40;11.30;;;9.20;77.30;;;;;;5055617;28;20021;-67
2022/02/04 10:42:38;;;;;;;27.03;11.77;;;9.30;77.90;;;;;;5055447;28;20392;-68
2022/02/04 11:01:34;;;;;;;25.60;11.53;;;9.40;77.80;;;;;;5055173;28;20577;-67
2022/02/04 11:04:23;;;;;;;26.90;12.30;;;9.30;77.70;;;;;;5054984;28;20096;-66
2022/02/04 11:09:48;;;;;;;26.80;13.33;;;9.40;77.90;;;;;;5054725;28;20489;-67
2022/02/04 11:32:47;;;;;;;23.33;11.53;;;9.40;77.50;;;;;;5054882;28;20052;-68
2022/02/04 11:43:54;;;;;;;36.70;20.30;;;9.50;77.10;;;;;;5054349;28;20051;-67
2022/02/04 11:52:07;;;;;;;25.77;14.00;;;9.50;77.40;;;;;;5054046;28;20029;-67
2022/02/04 11:54:41;;;;;;;23.03;14.27;;;9.50;77.30;;;;;;5052733;28;20032;-67
2022/02/04 11:57:07;;;;;;;24.23;13.40;;;9.60;77.10;;;;;;5052742;28;20514;-67
2022/02/04 11:59:44;;;;;;;29.10;14.43;;;9.60;77.10;;;;;;5050718;28;20029;-67
2022/02/04 12:02:29;;;;;;;23.93;14.03;;;9.60;77.10;;;;;;5050828;28;20513;-67
2022/02/04 12:05:12;;;;;;;23.63;14.40;;;9.70;77.20;;;;;;5052877;28;20351;-66
2022/02/04 12:07:43;;;;;;;27.43;14.63;;;9.70;77.20;;;;;;5053753;28;20081;-66
2022/02/04 12:10:11;;;;;;;23.97;14.70;;;9.70;77.00;;;;;;5053564;28;20049;-67
2022/02/04 12:12:52;;;;;;;31.30;14.93;;;9.70;77.00;;;;;;5053696;28;20025;-68
2022/02/04 12:15:47;;;;;;;32.37;14.30;;;9.70;77.00;;;;;;5053768;28;20052;-67
2022/02/04 12:18:21;;;;;;;25.33;14.50;;;9.70;77.10;;;;;;5052594;28;20112;-67
2022/02/04 12:20:51;;;;;;;23.07;14.40;;;9.80;77.00;;;;;;5053642;28;20017;-68
2022/02/04 12:23:26;;;;;;;24.70;15.37;;;9.80;77.20;;;;;;5050736;28;20028;-67
2022/02/04 12:25:52;;;;;;;25.83;15.70;;;9.80;77.20;;;;;;5050764;28;20025;-67
2022/02/04 12:28:36;;;;;;;34.00;18.87;;;9.80;77.10;;;;;;5050706;28;20090;-67
2022/02/04 12:31:29;;;;;;;36.17;23.57;;;9.80;77.50;;;;;;5049838;28;20051;-67
2022/02/04 12:34:14;;;;;;;38.67;24.70;;;9.90;78.60;;;;;;5051038;28;20087;-68
2022/02/04 12:36:39;;;;;;;43.50;31.10;;;9.90;79.00;;;;;;5052243;28;20024;-67
2022/02/04 12:39:26;;;;;;;46.73;31.07;;;10.00;80.60;;;;;;5053015;28;20469;-67
2022/02/04 12:42:04;;;;;;;47.20;32.57;;;10.00;82.50;;;;;;5053074;28;20028;-67
2022/02/04 12:44:34;;;;;;;44.83;32.63;;;10.00;83.50;;;;;;5050545;28;20057;-67
2022/02/04 12:47:02;;;;;;;40.53;30.93;;;10.10;83.50;;;;;;5050284;28;20031;-67
2022/02/04 12:49:30;;;;;;;42.83;28.37;;;10.10;84.00;;;;;;5051343;28;20473;-67
2022/02/04 12:52:07;;;;;;;37.77;28.20;;;10.20;84.10;;;;;;5052413;28;20033;-67
2022/02/04 12:54:40;;;;;;;38.63;25.70;;;10.20;84.00;;;;;;5053159;28;20091;-67
2022/02/04 13:10:44;;;;;;;37.63;23.50;;;10.30;85.60;;;;;;5052571;28;20041;-67
2022/02/04 13:13:14;;;;;;;47.07;24.90;;;10.30;86.40;;;;;;5052751;28;20025;-66
2022/02/04 13:15:41;;;;;;;32.63;23.40;;;10.30;86.80;;;;;;5052996;28;20048;-67
2022/02/04 13:18:10;;;;;;;39.33;23.23;;;10.30;86.70;;;;;;5052861;28;20096;-67
2022/02/04 13:20:38;;;;;;;36.30;22.67;;;10.40;86.50;;;;;;5052916;28;20032;-67
2022/02/04 13:23:10;;;;;;;37.43;21.30;;;10.40;86.30;;;;;;5053182;28;20029;-67
2022/02/04 13:25:41;;;;;;;31.67;20.23;;;10.30;87.00;;;;;;5053107;28;20053;-66
2022/02/04 13:28:11;;;;;;;36.40;21.33;;;10.40;87.60;;;;;;5052776;28;20110;-67
2022/02/04 13:30:42;;;;;;;36.07;20.20;;;10.40;87.30;;;;;;5053144;28;20072;-67
2022/02/04 13:33:17;;;;;;;36.40;20.17;;;10.40;86.80;;;;;;5056300;28;20052;-68
2022/02/04 13:35:51;;;;;;;38.83;18.80;;;10.40;87.20;;;;;;5056876;28;20028;-69
2022/02/04 13:38:28;;;;;;;29.97;19.83;;;10.40;87.10;;;;;;5056694;28;20025;-66
2022/02/04 13:44:18;;;;;;;;;;;10.40;86.80;;;;;;5056999;28;20032;-71
2022/02/04 13:46:31;;;;;;;34.88;17.85;;;10.40;86.60;;;;;;5056367;28;19931;-68
2022/02/04 13:51:55;;;;;;;38.97;21.47;;;10.40;87.00;;;;;;5056429;28;20118;-67
2022/02/04 14:00:14;;;;;;;35.92;18.83;;;10.40;87.50;;;;;;5055037;28;20025;-66
2022/02/04 14:02:48;;;;;;;35.33;17.92;;;10.50;87.50;;;;;;5056266;28;20055;-67
2022/02/04 14:05:33;;;;;;;31.40;18.48;;;10.40;87.50;;;;;;5056155;28;20025;-67
2022/02/04 14:08:13;;;;;;;31.03;18.93;;;10.40;87.60;;;;;;5056249;28;20021;-67
2022/02/04 14:10:56;;;;;;;34.03;20.00;;;10.40;87.60;;;;;;5055994;28;20041;-67
2022/02/04 14:13:24;;;;;;;32.53;20.20;;;10.50;87.50;;;;;;5056466;28;20056;-66
2022/02/04 14:16:02;;;;;;;34.90;19.52;;;10.40;87.50;;;;;;5056084;28;20112;-66
2022/02/04 14:18:30;;;;;;;38.75;18.92;;;10.40;87.60;;;;;;5055952;28;20044;-67
2022/02/04 14:20:57;;;;;;;66.25;33.38;;;10.40;87.40;;;;;;5054782;28;20082;-70
2022/02/04 14:23:26;;;;;;;42.03;23.08;;;10.40;87.20;;;;;;5055576;28;20447;-70
2022/02/04 14:26:07;;;;;;;35.00;19.13;;;10.40;87.50;;;;;;5055833;28;20374;-66
2022/02/04 14:28:48;;;;;;;37.47;18.83;;;10.40;87.40;;;;;;5055919;28;20036;-66
2022/02/04 15:00:58;;;;;;;36.20;18.57;;;10.30;87.40;;;;;;5055213;28;20495;-67
2022/02/04 15:03:37;;;;;;;26.27;17.73;;;10.30;87.60;;;;;;5055178;28;20084;-67
2022/02/04 15:06:13;;;;;;;31.95;17.77;;;10.30;87.60;;;;;;5055164;28;20090;-67
2022/02/04 15:08:39;;;;;;;29.83;18.30;;;10.30;87.60;;;;;;5054433;28;20049;-70
2022/02/04 15:11:15;;;;;;;29.00;18.73;;;10.30;87.70;;;;;;5054944;28;20087;-67
2022/02/04 15:13:42;;;;;;;33.00;19.10;;;10.30;87.50;;;;;;5055198;28;20021;-67
2022/02/04 15:16:12;;;;;;;42.05;22.02;;;10.30;87.50;;;;;;5055104;28;20037;-67
2022/02/04 15:18:40;;;;;;;33.17;20.55;;;10.30;87.40;;;;;;5054794;28;20368;-67
2022/02/04 15:21:12;;;;;;;39.03;20.63;;;10.30;87.30;;;;;;5054755;28;20385;-67
2022/02/04 15:23:40;;;;;;;32.75;20.33;;;10.30;87.50;;;;;;5054481;28;20540;-79
2022/02/04 15:26:07;;;;;;;34.80;20.73;;;10.20;87.50;;;;;;5054176;28;20150;-70
2022/02/04 15:28:43;;;;;;;34.90;21.10;;;10.30;87.30;;;;;;5054407;28;20382;-67
2022/02/04 15:31:19;;;;;;;35.40;22.90;;;10.20;87.40;;;;;;5054177;28;20036;-73
2022/02/04 15:33:46;;;;;;;46.95;22.38;;;10.30;87.50;;;;;;5054343;28;20039;-66
2022/02/04 15:36:12;;;;;;;32.25;21.35;;;10.30;87.50;;;;;;5053981;28;20063;-68
2022/02/04 15:38:38;;;;;;;32.08;21.33;;;10.30;87.50;;;;;;5054359;28;20096;-66
2022/02/04 15:41:04;;;;;;;34.05;20.70;;;10.20;87.50;;;;;;5054193;28;20029;-68
2022/02/04 15:43:31;;;;;;;36.13;20.15;;;10.20;87.50;;;;;;5054058;28;20053;-68
2022/02/04 15:53:53;;;;;;;153.05;81.75;;;10.20;87.80;;;;;;5053547;28;20029;-69
2022/02/04 15:57:20;;;;;;;88.88;45.15;;;10.20;87.60;;;;;;5053867;28;20037;-69
2022/02/04 16:04:39;;;;;;;32.17;19.77;;;10.20;87.30;;;;;;5053766;28;20040;-69
2022/02/04 16:07:05;;;;;;;38.45;21.33;;;10.10;87.40;;;;;;5053832;28;20025;-70
2022/02/04 16:09:31;;;;;;;40.80;23.63;;;10.20;87.60;;;;;;5053410;28;20206;-68
2022/02/04 16:12:11;;;;;;;39.35;19.27;;;10.10;87.50;;;;;;5053759;28;20032;-70
2022/02/04 16:14:50;;;;;;;32.47;19.47;;;10.10;87.40;;;;;;5053819;28;20037;-69
2022/02/04 16:17:25;;;;;;;33.22;18.52;;;10.10;87.30;;;;;;5053519;28;20032;-66
2022/02/04 16:20:09;;;;;;;35.75;18.27;;;10.10;87.10;;;;;;5051674;28;20071;-65
2022/02/04 16:25:18;;;;;;;32.13;18.10;;;10.10;86.90;;;;;;5050635;28;20928;-65
2022/02/04 16:30:11;;;;;;;29.73;18.83;;;10.10;86.90;;;;;;5051609;28;20128;-67
2022/02/04 16:32:37;;;;;;;31.27;17.77;;;10.10;86.90;;;;;;5052323;28;20029;-67
2022/02/04 16:35:05;;;;;;;28.33;15.60;;;10.10;86.80;;;;;;5052100;28;20025;-77
2022/02/04 16:37:37;;;;;;;31.80;17.17;;;10.10;86.80;;;;;;5052158;28;20044;-67
2022/02/04 16:40:16;;;;;;;31.15;16.38;;;10.10;86.90;;;;;;5051636;28;20048;-68
2022/02/04 16:42:44;;;;;;;33.17;15.60;;;10.10;86.90;;;;;;5052751;28;20021;-67
2022/02/04 16:45:10;;;;;;;29.33;14.65;;;10.00;86.80;;;;;;5052844;28;20488;-67
2022/02/04 16:47:36;;;;;;;24.30;15.23;;;10.00;86.70;;;;;;5052983;28;20024;-67
2022/02/04 16:50:02;;;;;;;35.67;16.67;;;10.00;86.80;;;;;;5053009;28;20040;-67
2022/02/04 16:52:29;;;;;;;29.73;15.67;;;10.00;86.50;;;;;;5052119;28;20086;-73
2022/02/04 16:54:55;;;;;;;32.88;16.60;;;10.00;86.40;;;;;;5050974;28;20440;-67
2022/02/04 16:57:25;;;;;;;28.10;15.83;;;10.00;86.40;;;;;;5051185;28;20017;-67
2022/02/04 16:59:57;;;;;;;26.93;16.63;;;10.00;86.40;;;;;;5051049;28;20033;-79
2022/02/04 17:02:23;;;;;;;31.42;15.30;;;10.00;86.40;;;;;;5052259;28;20444;-68
2022/02/04 17:04:49;;;;;;;33.07;15.63;;;10.00;86.30;;;;;;5052567;28;20381;-67
2022/02/04 17:07:22;;;;;;;32.75;16.15;;;9.90;86.20;;;;;;5052171;28;20033;-78
2022/02/04 17:09:50;;;;;;;35.70;15.53;;;10.00;86.50;;;;;;5052053;28;20505;-73
2022/02/04 17:12:26;;;;;;;28.33;15.35;;;9.90;86.50;;;;;;5051938;28;20040;-78
2022/02/04 17:14:52;;;;;;;25.35;15.75;;;9.90;86.60;;;;;;5051250;28;20123;-66
2022/02/04 17:17:23;;;;;;;30.23;16.15;;;9.90;86.50;;;;;;5051196;28;20092;-67
2022/02/04 17:20:10;;;;;;;30.00;14.83;;;9.90;86.40;;;;;;5051283;28;20033;-67
2022/02/04 17:22:37;;;;;;;25.77;14.97;;;9.90;86.30;;;;;;5052028;28;20033;-67
2022/02/04 17:25:09;;;;;;;34.42;15.43;;;9.80;86.40;;;;;;5052438;28;20032;-67
2022/02/04 17:27:37;;;;;;;27.03;16.37;;;9.80;86.70;;;;;;5051887;28;20029;-71
2022/02/04 17:30:04;;;;;;;31.17;15.03;;;9.80;86.80;;;;;;5045268;28;20029;-68
2022/02/04 17:32:30;;;;;;;53.38;29.73;;;9.80;86.80;;;;;;5042564;28;20052;-76
2022/02/04 17:34:57;;;;;;;84.30;48.77;;;9.70;87.10;;;;;;5039942;28;20473;-67
2022/02/04 17:37:24;;;;;;;89.07;50.33;;;9.70;87.20;;;;;;5032153;28;20367;-67
2022/02/04 17:39:52;;;;;;;82.28;45.95;;;9.70;87.30;;;;;;5032031;28;20024;-66
2022/02/04 17:42:22;;;;;;;70.43;39.93;;;9.70;87.30;;;;;;5031876;28;20026;-67
2022/02/04 17:44:52;;;;;;;56.23;30.10;;;9.70;87.20;;;;;;5031138;28;20025;-68
2022/02/04 17:47:21;;;;;;;38.33;19.77;;;9.70;87.30;;;;;;5031893;28;20021;-66
2022/02/04 17:52:27;;;;;;;32.27;18.00;;;9.70;87.40;;;;;;5039964;28;20043;-66
2022/02/04 17:55:08;;;;;;;30.93;16.50;;;9.70;87.20;;;;;;5042081;28;20036;-66
2022/02/04 17:57:57;;;;;;;32.57;16.47;;;9.70;87.20;;;;;;5042385;28;20028;-66
2022/02/04 18:00:53;;;;;;;56.50;32.70;;;9.70;87.10;;;;;;5037359;28;20163;-65
2022/02/04 18:08:34;;;;;;;38.03;17.50;;;9.60;87.20;;;;;;5041647;28;20056;-65
2022/02/04 18:11:17;;;;;;;29.25;17.85;;;9.60;87.40;;;;;;5036933;28;20046;-65
2022/02/04 18:13:45;;;;;;;35.43;18.80;;;9.60;87.30;;;;;;5032081;28;20025;-66
2022/02/04 18:16:11;;;;;;;36.83;20.20;;;9.60;87.20;;;;;;5032313;28;20029;-65
2022/02/04 18:18:37;;;;;;;35.30;21.27;;;9.60;87.00;;;;;;5035478;28;20129;-68
2022/02/04 18:21:03;;;;;;;40.53;20.03;;;9.60;87.10;;;;;;5035536;28;20025;-70
2022/02/04 18:23:30;;;;;;;38.93;21.30;;;9.60;87.30;;;;;;5035732;28;20482;-68
2022/02/04 18:25:56;;;;;;;40.17;23.17;;;9.50;87.40;;;;;;5035495;28;20531;-66
2022/02/04 18:28:23;;;;;;;41.97;21.10;;;9.50;87.80;;;;;;5035183;28;20021;-65
2022/02/04 18:30:49;;;;;;;43.83;20.40;;;9.50;87.80;;;;;;5035455;28;20120;-66
2022/02/04 18:33:16;;;;;;;42.10;22.43;;;9.50;87.80;;;;;;5035757;28;20111;-68
2022/02/04 18:35:45;;;;;;;37.07;22.10;;;9.50;87.70;;;;;;5035411;28;20029;-65
2022/02/04 18:38:29;;;;;;;46.27;26.90;;;9.50;88.00;;;;;;5036666;28;20144;-68
2022/02/04 18:41:22;;;;;;;52.30;26.07;;;9.50;88.40;;;;;;5034726;28;20119;-66
2022/02/04 18:47:00;;;;;;;45.67;27.33;;;9.50;88.50;;;;;;5038572;28;20088;-66
2022/02/04 18:49:37;;;;;;;43.43;26.17;;;9.40;88.30;;;;;;5034583;28;20397;-66
2022/02/04 18:52:35;;;;;;;46.67;28.40;;;9.40;88.20;;;;;;5035021;28;20025;-66
2022/02/04 18:57:35;;;;;;;48.83;28.07;;;9.40;88.40;;;;;;5033240;28;20106;-66
2022/02/04 19:00:10;;;;;;;45.53;25.93;;;9.40;88.40;;;;;;5032422;28;20041;-66
2022/02/04 19:02:37;;;;;;;45.53;28.07;;;9.40;88.60;;;;;;5033659;28;20448;-66
2022/02/04 19:05:10;;;;;;;46.13;25.83;;;9.40;88.60;;;;;;5035360;28;20116;-66
2022/02/04 19:10:08;;;;;;;52.07;27.40;;;9.40;88.90;;;;;;5034785;28;20104;-66
2022/02/04 19:12:45;;;;;;;46.90;27.03;;;9.30;88.90;;;;;;5035282;28;20033;-66
2022/02/04 19:17:51;;;;;;;46.70;29.63;;;9.20;89.10;;;;;;5034573;28;20029;-66
2022/02/04 19:20:59;;;;;;;59.53;39.20;;;9.20;89.30;;;;;;5034570;28;20448;-66
2022/02/04 19:23:13;;;;;;;53.47;35.63;;;9.10;89.40;;;;;;5035291;28;20385;-66
2022/02/04 19:25:41;;;;;;;44.67;27.73;;;9.10;89.60;;;;;;5034478;28;20493;-66
2022/02/04 19:28:09;;;;;;;46.93;29.10;;;9.00;89.90;;;;;;5033416;28;20501;-66
2022/02/04 19:30:46;;;;;;;51.97;28.57;;;9.00;90.00;;;;;;5034653;28;20033;-66
2022/02/04 19:33:16;;;;;;;53.93;28.60;;;8.90;90.00;;;;;;5034675;28;20021;-67
2022/02/04 19:35:42;;;;;;;44.43;27.97;;;8.90;90.00;;;;;;5034700;28;20021;-67
2022/02/04 19:38:08;;;;;;;58.10;28.47;;;8.90;89.90;;;;;;5034453;28;20021;-67
2022/02/04 19:40:34;;;;;;;48.30;27.73;;;8.90;89.70;;;;;;5034079;28;20083;-67
2022/02/04 19:43:00;;;;;;;45.87;27.07;;;8.90;89.50;;;;;;5031774;28;20033;-70
2022/02/04 19:45:31;;;;;;;39.40;24.93;;;8.80;89.20;;;;;;5030205;28;20429;-67
2022/02/04 19:48:06;;;;;;;38.03;24.27;;;8.80;89.00;;;;;;5032628;28;20037;-67
2022/02/04 20:25:27;;;;;;;40.50;22.37;;;8.30;87.80;;;;;;5043303;28;20116;-68
2022/02/04 20:27:59;;;;;;;40.40;23.37;;;8.30;87.90;;;;;;5040553;28;20096;-69